Nearby METAR Reports

 

KPRB - Paso Robles, California, USA
Distance from station: SW 1mi, 1km
Updated: 07/29/2014 12:53am
Clear
Clear
 Wind from WNW
Wind: WNW 5 mph , 7 km/h
Temperature: 70°F , 21°C
Dew Point: 54°F , 12°C
Humidity: 57%
Barometer: 30.05 inHg , 1017.6 hPa
Clouds: Clear
Visibility: 10 miles , 16 km
2014/07/29 07:53 KPRB 290753Z AUTO 30004KT 10SM CLR 21/12 A3005 RMK AO2 SLP168 T02110117 403610189
KSBP - San Luis Obispo, California, USA
Distance from station: S 30mi, 49km
Updated: 07/29/2014 12:56am
Clear
Clear
 Wind from NW
Wind: NW 5 mph , 7 km/h
Temperature: 63°F , 17°C
Dew Point: 61°F , 16°C
Humidity: 94%
Barometer: 30.05 inHg , 1017.6 hPa
Clouds: Clear
Visibility: 10 miles , 16 km
2014/07/29 07:56 KSBP 290756Z AUTO 31004KT 10SM CLR 17/16 A3005 RMK AO2 SLP174 T01670156 403000167 $
 
KSMX - Santa Maria, California, USA
Distance from station: S 54mi, 87km
Updated: 07/29/2014 1:31am
Partly cloudy
Partly cloudy
 Wind from calm
Wind: Calm
Temperature: 64°F , 18°C
Dew Point: 59°F , 15°C
Humidity: 83%
Barometer: 30.05 inHg , 1017.6 hPa
Clouds: Partly cloudy
Visibility: 7 miles , 11 km
Cloud details: Partly cloudy 600 ft
2014/07/29 08:31 KSMX 290831Z AUTO 00000KT 7SM SCT006 18/15 A3005 RMK AO2 TSNO $
KNLC - Lemoore Nas/Reev, California, USA
Distance from station: NE 58mi, 94km
Updated: 07/29/2014 12:56am
Clear
Clear
 Wind from calm
Wind: Calm
Temperature: 75°F , 24°C
Dew Point: 46°F , 8°C
Humidity: 36%
Barometer: 29.98 inHg , 1015.2 hPa
Clouds: Clear
Visibility: 10 miles , 16 km
2014/07/29 07:56 KNLC 290756Z AUTO 00000KT 10SM CLR 24/08 A2998 RMK AO2 SLP152 T02440083 403560228 $
 
KVBG - Vandenberg Afb, California, USA
Distance from station: S 65mi, 105km
Updated: 07/29/2014 1:32am
Mostly cloudy
Mostly cloudy
 Wind from N
Wind: N 3 mph , 6 km/h
Temperature: 61°F , 16°C
Dew Point: 59°F , 15°C
Humidity: 94%
Barometer: 30.06 inHg , 1017.9 hPa
Clouds: Mostly cloudy
Visibility: 10 miles , 16 km
Cloud details: Mostly cloudy 400 ft
2014/07/29 08:32 KVBG 290832Z AUTO 36003KT 10SM BKN004 16/15 A3006 RMK AO2 TSNO $
KLPC - Lompoc, California, USA
Distance from station: S 70mi, 113km
Updated: 07/29/2014 1:35am

 
Temperature: 61°F , 16°C
Dew Point: 54°F , 12°C
Humidity: 77%
Barometer: 30.05 inHg , 1017.6 hPa
Visibility: 10 miles , 16 km
2014/07/29 08:35 KLPC 290835Z AUTO 10SM 16/12 A3005 RMK AO1
 
KHJO - Hanford, California, USA
Distance from station: NE 72mi, 116km
Updated: 07/29/2014 12:53am
Clear
Clear
 Wind from N
Wind: N 3 mph , 6 km/h
Temperature: 77°F , 25°C
Dew Point: 61°F , 16°C
Humidity: 57%
Barometer: 29.98 inHg , 1015.2 hPa
Clouds: Clear
Visibility: 10 miles , 16 km
2014/07/29 07:53 KHJO 290753Z AUTO 36003KT 10SM CLR 25/16 A2998 RMK AO2 SLP152 T02500156 403830233